createdAt,value
2017-11-07T00:00:34.202Z,20.48
2017-11-07T00:03:01.645Z,18.50
2017-11-07T00:05:29.086Z,20.67
2017-11-07T00:07:57.305Z,21.65
2017-11-07T00:10:24.734Z,20.20
2017-11-07T00:15:49.775Z,21.98
2017-11-07T00:18:17.226Z,18.35
2017-11-07T00:20:44.677Z,21.83
2017-11-07T00:23:12.133Z,20.65
2017-11-07T00:25:39.585Z,20.83
2017-11-07T00:28:07.818Z,19.35
2017-11-07T00:30:35.252Z,20.30
2017-11-07T00:33:02.707Z,19.83
2017-11-07T00:35:30.157Z,21.27
2017-11-07T00:37:57.613Z,19.35
2017-11-07T00:40:25.057Z,21.75
2017-11-07T00:42:52.520Z,22.30
2017-11-07T00:45:19.957Z,21.92
2017-11-07T00:47:48.174Z,20.42
2017-11-07T00:50:15.622Z,21.65
2017-11-07T00:52:43.091Z,22.15
2017-11-07T00:55:10.547Z,21.40
2017-11-07T00:57:38.002Z,22.05
2017-11-07T01:00:05.445Z,23.10
2017-11-07T01:02:32.909Z,22.48
2017-11-07T01:05:00.346Z,24.55
2017-11-07T01:07:28.573Z,23.25
2017-11-07T01:09:56.017Z,23.42
2017-11-07T01:12:23.481Z,23.27
2017-11-07T01:14:50.929Z,20.92
2017-11-07T01:17:18.403Z,21.00
2017-11-07T01:19:45.843Z,22.42
2017-11-07T01:22:13.334Z,22.20
2017-11-07T01:24:40.785Z,22.92
2017-11-07T01:27:08.237Z,17.02
2017-11-07T01:29:35.687Z,23.73
2017-11-07T01:32:03.136Z,22.13
2017-11-07T01:34:30.602Z,23.50
2017-11-07T01:36:58.062Z,22.67
2017-11-07T01:39:25.519Z,23.30
2017-11-07T01:41:52.978Z,23.35
2017-11-07T01:44:20.429Z,24.92
2017-11-07T01:46:47.874Z,27.42
2017-11-07T01:49:15.340Z,25.37
2017-11-07T01:51:42.793Z,26.83
2017-11-07T01:54:10.274Z,27.90
2017-11-07T01:56:37.726Z,28.15
2017-11-07T01:59:05.176Z,29.65
2017-11-07T02:01:32.630Z,30.35
2017-11-07T02:04:00.091Z,30.70
2017-11-07T02:06:27.550Z,28.60
2017-11-07T02:08:55.028Z,26.67
2017-11-07T02:11:22.484Z,32.38
2017-11-07T02:13:49.949Z,28.73
2017-11-07T02:16:17.395Z,28.75
2017-11-07T02:18:44.853Z,30.75
2017-11-07T02:21:12.316Z,28.15
2017-11-07T02:23:39.778Z,29.50
2017-11-07T02:26:07.230Z,34.55
2017-11-07T02:28:34.686Z,30.90
2017-11-07T02:31:02.148Z,32.65
2017-11-07T02:33:29.612Z,31.12
2017-11-07T02:35:57.078Z,32.17
2017-11-07T02:38:24.540Z,32.88
2017-11-07T02:40:51.982Z,30.73
2017-11-07T02:43:19.464Z,31.58
2017-11-07T02:45:46.907Z,32.10
2017-11-07T02:48:14.402Z,29.48
2017-11-07T02:50:42.613Z,29.08
2017-11-07T02:53:10.070Z,27.15
2017-11-07T02:55:37.519Z,27.50
2017-11-07T02:58:04.974Z,25.50
2017-11-07T03:00:32.929Z,27.52
2017-11-07T03:03:00.383Z,25.92
2017-11-07T03:05:27.851Z,27.23
2017-11-07T03:07:55.313Z,23.75
2017-11-07T03:10:22.768Z,25.45
2017-11-07T03:12:50.223Z,24.77
2017-11-07T03:15:17.680Z,28.25
2017-11-07T03:17:45.144Z,28.27
2017-11-07T03:20:12.603Z,27.40
2017-11-07T03:22:40.106Z,27.87
2017-11-07T03:25:07.553Z,27.65
2017-11-07T03:27:35.000Z,27.20
2017-11-07T03:30:02.462Z,23.20
2017-11-07T03:32:30.724Z,25.15
2017-11-07T03:34:58.212Z,22.50
2017-11-07T03:37:25.663Z,25.75
2017-11-07T03:39:53.126Z,30.73
2017-11-07T03:42:20.577Z,30.98
2017-11-07T03:44:48.039Z,29.35
2017-11-07T03:47:15.485Z,30.37
2017-11-07T03:49:42.942Z,29.73
2017-11-07T03:52:10.389Z,29.60
2017-11-07T03:54:37.857Z,26.10
2017-11-07T03:57:05.306Z,29.95
2017-11-07T03:59:32.766Z,26.95
2017-11-07T04:02:00.224Z,26.85
2017-11-07T04:04:27.698Z,28.00
2017-11-07T04:06:55.152Z,24.80
2017-11-07T04:09:22.603Z,29.27
2017-11-07T04:11:50.064Z,25.80
2017-11-07T04:14:17.513Z,27.83
2017-11-07T04:16:44.964Z,28.20
2017-11-07T04:19:12.419Z,27.83
2017-11-07T04:21:39.862Z,27.85
2017-11-07T04:24:07.367Z,27.75
2017-11-07T04:26:34.805Z,27.75
2017-11-07T04:29:02.272Z,23.98
2017-11-07T04:31:29.731Z,29.30
2017-11-07T04:33:57.189Z,24.85
2017-11-07T04:36:24.634Z,31.15
2017-11-07T04:38:52.091Z,25.62
2017-11-07T04:41:19.546Z,28.02
2017-11-07T04:43:47.003Z,25.10
2017-11-07T04:46:14.460Z,29.15
2017-11-07T04:48:41.917Z,26.33
2017-11-07T04:51:09.372Z,22.13
2017-11-07T04:53:36.819Z,25.35
2017-11-07T04:56:04.266Z,24.40
2017-11-07T04:58:32.495Z,29.33
2017-11-07T05:00:59.971Z,23.80
2017-11-07T05:03:27.436Z,29.50
2017-11-07T05:05:54.886Z,28.00
2017-11-07T05:08:22.335Z,22.58
2017-11-07T05:10:49.794Z,27.77
2017-11-07T05:13:17.262Z,28.73
2017-11-07T05:15:44.727Z,26.95
2017-11-07T05:18:12.177Z,27.15
2017-11-07T05:20:39.623Z,27.25
2017-11-07T05:23:07.085Z,23.62
2017-11-07T05:25:34.529Z,25.52
2017-11-07T05:28:01.980Z,27.10
2017-11-07T05:30:29.425Z,27.87
2017-11-07T05:32:56.886Z,26.55
2017-11-07T05:35:24.344Z,25.10
2017-11-07T05:37:51.798Z,22.15
2017-11-07T05:40:19.254Z,26.73
2017-11-07T05:42:46.702Z,25.85
2017-11-07T05:45:14.153Z,26.33
2017-11-07T05:47:41.703Z,25.75
2017-11-07T05:50:09.906Z,26.92
2017-11-07T05:52:37.380Z,27.85
2017-11-07T05:55:04.824Z,23.15
2017-11-07T05:57:32.269Z,27.92
2017-11-07T05:59:59.724Z,19.80
2017-11-07T06:02:27.174Z,19.45
2017-11-07T06:04:55.401Z,18.60
2017-11-07T06:07:22.851Z,20.20
2017-11-07T06:09:50.295Z,18.80
2017-11-07T06:12:17.746Z,16.80
2017-11-07T06:14:45.212Z,20.65
2017-11-07T06:17:12.671Z,20.20
2017-11-07T06:19:40.122Z,19.20
2017-11-07T06:22:07.583Z,20.85
2017-11-07T06:24:35.038Z,21.58
2017-11-07T06:27:02.492Z,21.80
2017-11-07T06:29:29.941Z,18.25
2017-11-07T06:31:57.423Z,22.02
2017-11-07T06:34:24.882Z,20.02
2017-11-07T06:36:52.331Z,21.85
2017-11-07T06:39:19.784Z,21.52
2017-11-07T06:41:47.230Z,20.40
2017-11-07T06:44:14.714Z,19.75
2017-11-07T06:46:42.160Z,19.20
2017-11-07T06:49:09.632Z,19.40
2017-11-07T06:51:37.079Z,20.30
2017-11-07T06:54:04.535Z,18.30
2017-11-07T06:56:31.991Z,18.40
2017-11-07T06:58:59.452Z,17.95
2017-11-07T07:01:26.907Z,19.77
2017-11-07T07:03:54.402Z,20.50
2017-11-07T07:06:21.851Z,18.35
2017-11-07T07:08:49.295Z,17.65
2017-11-07T07:11:16.808Z,19.20
2017-11-07T07:13:45.028Z,17.10
2017-11-07T07:16:12.487Z,16.90
2017-11-07T07:18:39.937Z,17.50
2017-11-07T07:21:07.409Z,17.12
2017-11-07T07:23:34.865Z,17.40
2017-11-07T07:26:02.314Z,17.12
2017-11-07T07:28:29.763Z,14.75
2017-11-07T07:30:57.284Z,16.37
2017-11-07T07:33:24.738Z,13.25
2017-11-07T07:35:52.221Z,17.02
2017-11-07T07:38:20.436Z,20.60
2017-11-07T07:40:47.883Z,18.17
2017-11-07T07:43:15.339Z,17.40
2017-11-07T07:45:42.790Z,15.18
2017-11-07T07:48:10.247Z,19.50
2017-11-07T07:50:37.699Z,15.95
2017-11-07T07:53:05.151Z,15.88
2017-11-07T07:55:32.606Z,17.62
2017-11-07T07:58:00.084Z,18.73
2017-11-07T08:00:27.538Z,16.60
2017-11-07T08:02:54.993Z,16.27
2017-11-07T08:05:22.467Z,16.62
2017-11-07T08:07:49.916Z,17.77
2017-11-07T08:10:17.375Z,17.42
2017-11-07T08:12:44.839Z,16.90
2017-11-07T08:15:12.311Z,15.50
2017-11-07T08:17:39.767Z,18.10
2017-11-07T08:20:07.222Z,16.12
2017-11-07T08:22:34.679Z,15.60
2017-11-07T08:25:02.146Z,15.10
2017-11-07T08:27:29.597Z,15.02
2017-11-07T08:29:57.055Z,14.20
2017-11-07T08:32:24.522Z,13.77
2017-11-07T08:34:51.992Z,13.45
2017-11-07T08:37:19.442Z,13.48
2017-11-07T08:39:46.905Z,12.70
2017-11-07T08:42:14.349Z,13.27
2017-11-07T08:44:41.804Z,10.80
2017-11-07T08:47:09.264Z,11.40
2017-11-07T08:49:36.715Z,12.27
2017-11-07T08:52:04.209Z,12.02
2017-11-07T08:54:31.647Z,11.23
2017-11-07T08:56:59.095Z,10.80
2017-11-07T08:59:26.546Z,10.73
2017-11-07T09:01:53.999Z,11.65
2017-11-07T09:04:21.449Z,12.30
2017-11-07T09:06:48.908Z,11.32
2017-11-07T09:09:16.362Z,12.52
2017-11-07T09:11:43.821Z,12.43
2017-11-07T09:14:11.279Z,13.88
2017-11-07T09:16:38.728Z,14.35
2017-11-07T09:19:06.189Z,15.88
2017-11-07T09:21:33.637Z,17.27
2017-11-07T09:24:01.090Z,16.77
2017-11-07T09:26:29.301Z,16.40
2017-11-07T09:28:56.762Z,17.40
2017-11-07T09:31:24.217Z,18.75
2017-11-07T09:33:51.674Z,19.10
2017-11-07T09:36:19.131Z,18.33
2017-11-07T09:38:46.570Z,20.55
2017-11-07T09:41:14.062Z,22.70
2017-11-07T09:43:41.515Z,23.45
2017-11-07T09:46:08.978Z,26.15
2017-11-07T09:48:36.427Z,25.25
2017-11-07T09:51:03.886Z,23.25
2017-11-07T09:53:31.337Z,26.33
2017-11-07T09:55:58.799Z,25.95
2017-11-07T09:58:26.248Z,26.15
2017-11-07T10:00:53.719Z,26.77
2017-11-07T10:03:21.159Z,27.92
2017-11-07T10:05:48.614Z,29.85
2017-11-07T10:08:16.081Z,26.25
2017-11-07T10:10:43.523Z,27.90
2017-11-07T10:13:10.983Z,27.95
2017-11-07T10:15:38.446Z,29.40
2017-11-07T10:18:05.899Z,26.37
2017-11-07T10:20:33.356Z,28.05
2017-11-07T10:23:00.834Z,28.27
2017-11-07T10:25:28.283Z,28.80
2017-11-07T10:27:55.738Z,32.40
2017-11-07T10:30:23.215Z,28.27
2017-11-07T10:32:50.656Z,27.02
2017-11-07T10:35:18.114Z,26.70
2017-11-07T10:37:45.565Z,29.85
2017-11-07T10:40:13.018Z,26.83
2017-11-07T10:42:40.467Z,27.05
2017-11-07T10:45:07.923Z,30.00
2017-11-07T10:47:35.380Z,28.83
2017-11-07T10:50:03.590Z,27.60
2017-11-07T10:52:31.054Z,28.95
2017-11-07T10:54:58.500Z,29.23
2017-11-07T10:57:25.959Z,25.77
2017-11-07T10:59:53.419Z,28.98
2017-11-07T11:02:20.874Z,27.10
2017-11-07T11:04:48.326Z,27.62
2017-11-07T11:07:15.782Z,25.80
2017-11-07T11:09:43.243Z,25.30
2017-11-07T11:12:10.697Z,27.65
2017-11-07T11:14:38.152Z,28.70
2017-11-07T11:17:05.643Z,25.27
2017-11-07T11:19:33.085Z,26.92
2017-11-07T11:22:00.537Z,26.70
2017-11-07T11:24:28.009Z,27.02
2017-11-07T11:26:55.470Z,27.80
2017-11-07T11:29:22.931Z,26.52
2017-11-07T11:31:50.394Z,26.48
2017-11-07T11:34:17.859Z,26.17
2017-11-07T11:36:45.345Z,26.95
2017-11-07T11:39:12.798Z,26.48
2017-11-07T11:41:41.019Z,27.00
2017-11-07T11:44:08.480Z,25.40
2017-11-07T11:46:35.934Z,27.08
2017-11-07T11:49:03.419Z,28.38
2017-11-07T11:51:30.871Z,29.27
2017-11-07T11:53:58.330Z,28.73
2017-11-07T11:56:25.777Z,28.25
2017-11-07T11:58:53.228Z,28.23
2017-11-07T12:01:20.694Z,26.80
2017-11-07T12:03:48.139Z,30.25
2017-11-07T12:06:15.619Z,28.62
2017-11-07T12:08:43.063Z,30.02
2017-11-07T12:11:10.526Z,29.65
2017-11-07T12:13:37.976Z,32.33
2017-11-07T12:16:05.443Z,31.02
2017-11-07T12:18:32.899Z,30.55
2017-11-07T12:21:00.349Z,32.10
2017-11-07T12:23:27.810Z,33.08
2017-11-07T12:25:55.262Z,29.33
2017-11-07T12:28:22.744Z,29.77
2017-11-07T12:30:50.182Z,30.40
2017-11-07T12:33:17.642Z,29.63
2017-11-07T12:35:45.092Z,28.23
2017-11-07T12:38:12.544Z,31.42
2017-11-07T12:40:39.991Z,30.85
2017-11-07T12:43:07.437Z,30.62
2017-11-07T12:45:35.682Z,28.60
2017-11-07T12:48:03.131Z,32.10
2017-11-07T12:50:42.260Z,30.50
2017-11-07T12:53:09.720Z,28.33
2017-11-07T12:55:37.163Z,28.60
2017-11-07T12:58:04.622Z,30.77
2017-11-07T13:00:32.061Z,29.23
2017-11-07T13:02:59.518Z,29.25
2017-11-07T13:05:26.982Z,29.02
2017-11-07T13:07:54.442Z,27.20
2017-11-07T13:10:21.893Z,30.17
2017-11-07T13:12:49.356Z,28.48
2017-11-07T13:15:16.796Z,29.65
2017-11-07T13:17:44.269Z,30.08
2017-11-07T13:20:11.731Z,29.20
2017-11-07T13:22:39.192Z,32.30
2017-11-07T13:25:06.647Z,30.20
2017-11-07T13:27:34.107Z,29.58
2017-11-07T13:30:01.580Z,29.90
2017-11-07T13:32:29.039Z,29.12
2017-11-07T13:34:56.506Z,30.62
2017-11-07T13:37:23.963Z,29.05
2017-11-07T13:39:51.406Z,30.55
2017-11-07T13:42:18.865Z,29.25
2017-11-07T13:44:46.309Z,28.20
2017-11-07T13:47:13.767Z,31.17
2017-11-07T13:49:41.242Z,30.58
2017-11-07T13:52:08.698Z,28.77
2017-11-07T13:54:36.141Z,28.95
2017-11-07T13:57:03.617Z,28.50
2017-11-07T13:59:31.072Z,31.10
2017-11-07T14:01:58.517Z,27.50
2017-11-07T14:04:25.994Z,30.48
2017-11-07T14:06:53.447Z,30.20
2017-11-07T14:09:20.901Z,31.10
2017-11-07T14:11:48.371Z,29.10
2017-11-07T14:14:15.838Z,29.98
2017-11-07T14:16:43.294Z,29.08
2017-11-07T14:19:10.755Z,33.10
2017-11-07T14:21:38.205Z,30.80
2017-11-07T14:24:05.696Z,31.40
2017-11-07T14:26:33.140Z,30.60
2017-11-07T14:29:00.587Z,29.37
2017-11-07T14:31:28.034Z,30.12
2017-11-07T14:33:55.489Z,29.90
2017-11-07T14:36:22.949Z,30.08
2017-11-07T14:38:50.402Z,28.85
2017-11-07T14:41:17.856Z,30.90
2017-11-07T14:43:45.303Z,30.40
2017-11-07T14:46:12.756Z,30.88
2017-11-07T14:48:40.207Z,29.45
2017-11-07T14:51:07.687Z,30.30
2017-11-07T14:53:35.136Z,30.20
2017-11-07T14:56:02.586Z,28.92
2017-11-07T14:58:30.046Z,34.10
2017-11-07T15:00:57.500Z,31.90
2017-11-07T15:03:24.979Z,31.70
2017-11-07T15:05:52.410Z,30.25
2017-11-07T15:08:19.870Z,31.42
2017-11-07T15:10:47.325Z,31.40
2017-11-07T15:13:14.778Z,32.15
2017-11-07T15:15:42.246Z,29.33
2017-11-07T15:18:09.758Z,29.20
2017-11-07T15:20:37.206Z,29.95
2017-11-07T15:23:04.663Z,29.17
2017-11-07T15:25:32.128Z,31.15
2017-11-07T15:27:59.586Z,31.48
2017-11-07T15:30:27.094Z,30.85
2017-11-07T15:32:54.567Z,28.90
2017-11-07T15:35:22.046Z,29.98
2017-11-07T15:37:49.506Z,31.73
2017-11-07T15:40:16.981Z,30.30
2017-11-07T15:42:44.482Z,31.58
2017-11-07T15:45:12.721Z,30.75
2017-11-07T15:47:40.207Z,32.50
2017-11-07T15:50:08.437Z,30.98
2017-11-07T15:52:35.910Z,34.15
2017-11-07T15:55:03.372Z,33.45
2017-11-07T15:57:30.925Z,33.25
2017-11-07T15:59:58.464Z,31.75
2017-11-07T16:02:25.942Z,31.67
2017-11-07T16:04:53.411Z,34.30
2017-11-07T16:07:20.885Z,32.10
2017-11-07T16:09:49.215Z,32.85
2017-11-07T16:12:16.722Z,28.75
2017-11-07T16:14:44.963Z,30.08
2017-11-07T16:17:12.435Z,30.37
2017-11-07T16:19:39.939Z,30.80
2017-11-07T16:22:07.431Z,30.73
2017-11-07T16:24:34.918Z,33.28
2017-11-07T16:27:02.368Z,34.65
2017-11-07T16:29:29.839Z,32.25
2017-11-07T16:31:58.095Z,32.38
2017-11-07T16:34:25.579Z,29.95
2017-11-07T16:36:53.049Z,31.37
2017-11-07T16:39:21.315Z,32.90
2017-11-07T16:41:48.774Z,32.30
2017-11-07T16:44:17.010Z,33.55
2017-11-07T16:46:44.483Z,33.40
2017-11-07T16:49:11.943Z,32.70
2017-11-07T16:51:39.422Z,31.52
2017-11-07T16:54:06.896Z,32.85
2017-11-07T16:56:35.132Z,33.50
2017-11-07T16:59:02.596Z,33.55
2017-11-07T17:01:30.070Z,32.50
2017-11-07T17:03:57.542Z,33.55
2017-11-07T17:06:25.770Z,33.35
2017-11-07T17:08:53.262Z,33.88
2017-11-07T17:11:20.718Z,34.42
2017-11-07T17:13:48.218Z,34.67
2017-11-07T17:16:15.696Z,36.00
2017-11-07T17:18:43.169Z,35.20
2017-11-07T17:21:10.638Z,33.35
2017-11-07T17:23:38.137Z,33.10
2017-11-07T17:26:06.385Z,35.22
2017-11-07T17:28:33.856Z,35.40
2017-11-07T17:31:02.102Z,35.35
2017-11-07T17:33:29.563Z,35.85
2017-11-07T17:35:57.098Z,33.75
2017-11-07T17:38:24.566Z,34.67
2017-11-07T17:40:52.051Z,33.83
2017-11-07T17:43:19.518Z,36.15
2017-11-07T17:45:47.033Z,34.35
2017-11-07T17:48:14.511Z,37.13
2017-11-07T17:50:41.986Z,37.53
2017-11-07T17:53:09.468Z,38.60
2017-11-07T17:55:37.711Z,36.10
2017-11-07T17:58:05.194Z,37.85
2017-11-07T18:00:32.664Z,37.40
2017-11-07T18:03:00.950Z,38.13
2017-11-07T18:05:29.173Z,36.95
2017-11-07T18:07:56.646Z,35.88
2017-11-07T18:10:24.133Z,36.97
2017-11-07T18:12:52.388Z,35.47
2017-11-07T18:15:19.843Z,35.78
2017-11-07T18:17:47.299Z,39.05
2017-11-07T18:20:14.750Z,35.30
2017-11-07T18:22:42.234Z,36.97
2017-11-07T18:25:10.471Z,36.72
2017-11-07T18:27:37.927Z,38.08
2017-11-07T18:30:05.405Z,33.83
2017-11-07T18:32:32.851Z,36.60
2017-11-07T18:35:00.345Z,35.72
2017-11-07T18:37:27.789Z,34.60
2017-11-07T18:39:55.284Z,35.95
2017-11-07T18:42:23.502Z,34.80
2017-11-07T18:44:50.951Z,35.47
2017-11-07T18:47:18.407Z,36.83
2017-11-07T18:49:45.875Z,36.30
2017-11-07T18:52:13.373Z,34.97
2017-11-07T18:54:41.590Z,33.95
2017-11-07T18:57:09.063Z,35.03
2017-11-07T18:59:36.514Z,34.80
2017-11-07T19:02:03.989Z,35.83
2017-11-07T19:04:31.441Z,35.20
2017-11-07T19:06:58.922Z,36.33
2017-11-07T19:09:26.389Z,34.28
2017-11-07T19:11:53.847Z,34.53
2017-11-07T19:14:21.359Z,36.58
2017-11-07T19:16:48.792Z,31.52
2017-11-07T19:19:16.314Z,36.65
2017-11-07T19:21:43.765Z,36.92
2017-11-07T19:24:11.239Z,36.55
2017-11-07T19:26:38.685Z,37.95
2017-11-07T19:29:06.151Z,36.35
2017-11-07T19:31:33.624Z,36.50
2017-11-07T19:34:01.154Z,36.17
2017-11-07T19:36:28.612Z,36.28
2017-11-07T19:38:56.062Z,35.22
2017-11-07T19:41:23.521Z,35.42
2017-11-07T19:43:51.033Z,38.22
2017-11-07T19:46:19.277Z,37.40
2017-11-07T19:48:46.767Z,36.28
2017-11-07T19:51:14.982Z,36.10
2017-11-07T19:53:42.438Z,34.45
2017-11-07T19:56:09.951Z,30.70
2017-11-07T19:58:38.178Z,32.92
2017-11-07T20:01:05.667Z,31.35
2017-11-07T20:03:33.235Z,31.73
2017-11-07T20:06:00.684Z,32.13
2017-11-07T20:08:28.142Z,31.87
2017-11-07T20:10:55.595Z,33.53
2017-11-07T20:13:23.111Z,31.90
2017-11-07T20:15:50.580Z,32.63
2017-11-07T20:18:18.028Z,32.55
2017-11-07T20:20:45.474Z,32.30
2017-11-07T20:23:12.923Z,32.80
2017-11-07T20:25:41.139Z,33.05
2017-11-07T20:28:08.603Z,31.95
2017-11-07T20:30:36.076Z,30.62
2017-11-07T20:33:03.543Z,31.75
2017-11-07T20:35:30.986Z,31.27
2017-11-07T20:37:58.441Z,29.50
2017-11-07T20:40:25.911Z,26.20
2017-11-07T20:42:53.359Z,28.38
2017-11-07T20:45:20.829Z,28.90
2017-11-07T20:47:48.316Z,28.27
2017-11-07T20:50:16.531Z,24.70
2017-11-07T20:52:44.011Z,26.90
2017-11-07T20:55:11.497Z,26.75
2017-11-07T20:57:39.716Z,25.37
2017-11-07T21:00:07.171Z,23.45
2017-11-07T21:02:34.654Z,24.58
2017-11-07T21:05:02.124Z,23.33
2017-11-07T21:07:29.607Z,25.58
2017-11-07T21:09:57.049Z,24.73
2017-11-07T21:12:24.507Z,23.30
2017-11-07T21:14:51.955Z,24.90
2017-11-07T21:17:19.414Z,25.75
2017-11-07T21:19:46.872Z,24.95
2017-11-07T21:22:15.165Z,27.00
2017-11-07T21:24:42.625Z,22.62
2017-11-07T21:27:10.094Z,23.92
2017-11-07T21:29:38.308Z,22.92
2017-11-07T21:32:05.778Z,24.25
2017-11-07T21:34:33.222Z,23.12
2017-11-07T21:37:00.680Z,23.52
2017-11-07T21:39:28.126Z,25.83
2017-11-07T21:41:55.581Z,24.00
2017-11-07T21:44:23.037Z,21.98
2017-11-07T21:46:50.520Z,22.23
2017-11-07T21:49:17.978Z,23.20
2017-11-07T21:51:45.456Z,21.80
2017-11-07T21:54:12.908Z,24.00
2017-11-07T21:56:40.349Z,20.23
2017-11-07T21:59:07.822Z,20.95
2017-11-07T22:01:35.266Z,19.35
2017-11-07T22:04:02.746Z,20.67
2017-11-07T22:06:30.194Z,21.37
2017-11-07T22:08:57.659Z,20.88
2017-11-07T22:11:25.111Z,19.87
2017-11-07T22:13:52.558Z,19.40
2017-11-07T22:16:20.009Z,18.90
2017-11-07T22:18:47.470Z,19.90
2017-11-07T22:21:14.918Z,18.73
2017-11-07T22:23:42.383Z,19.95
2017-11-07T22:26:09.834Z,19.45
2017-11-07T22:28:37.278Z,19.67
2017-11-07T22:31:05.514Z,19.90
2017-11-07T22:33:32.970Z,18.50
2017-11-07T22:36:00.446Z,18.37
2017-11-07T22:38:27.905Z,19.65
2017-11-07T22:40:55.370Z,20.33
2017-11-07T22:43:22.814Z,21.62
2017-11-07T22:45:50.274Z,20.48
2017-11-07T22:48:17.714Z,21.12
2017-11-07T22:50:45.175Z,19.73
2017-11-07T22:53:12.633Z,22.00
2017-11-07T22:55:40.099Z,20.98
2017-11-07T22:58:07.547Z,22.50
2017-11-07T23:00:34.997Z,21.50
2017-11-07T23:03:02.450Z,21.65
2017-11-07T23:05:29.907Z,22.15
2017-11-07T23:07:57.353Z,21.90
2017-11-07T23:10:24.805Z,21.30
2017-11-07T23:12:52.254Z,21.30
2017-11-07T23:15:19.716Z,22.20
2017-11-07T23:17:47.162Z,20.90
2017-11-07T23:20:14.623Z,23.65
2017-11-07T23:22:42.070Z,21.90
2017-11-07T23:25:10.291Z,21.30
2017-11-07T23:27:37.749Z,20.73
2017-11-07T23:30:05.205Z,21.85
2017-11-07T23:32:32.651Z,22.52
2017-11-07T23:35:00.106Z,21.15
2017-11-07T23:37:27.558Z,22.42
2017-11-07T23:39:55.048Z,20.95
2017-11-07T23:42:22.493Z,21.08
2017-11-07T23:44:49.956Z,21.45
2017-11-07T23:47:17.396Z,21.83
2017-11-07T23:49:44.861Z,22.02
2017-11-07T23:52:12.304Z,21.85
2017-11-07T23:54:39.778Z,20.88
2017-11-07T23:57:07.234Z,22.25
2017-11-07T23:59:34.691Z,21.15
